createdAt,value
2016-12-04T00:00:47.055Z,0
2016-12-04T00:01:58.226Z,0
2016-12-04T00:03:09.947Z,0
2016-12-04T00:04:21.105Z,0
2016-12-04T00:05:32.271Z,0
2016-12-04T00:06:43.435Z,0
2016-12-04T00:07:54.612Z,0
2016-12-04T00:09:05.798Z,0
2016-12-04T00:10:16.959Z,0
2016-12-04T00:11:28.150Z,0
2016-12-04T00:12:39.305Z,0
2016-12-04T00:13:50.475Z,0
2016-12-04T00:15:01.656Z,0
2016-12-04T00:16:12.795Z,0
2016-12-04T00:17:23.996Z,0
2016-12-04T00:18:35.153Z,0
2016-12-04T00:19:46.319Z,0
2016-12-04T00:20:57.525Z,0
2016-12-04T00:22:08.698Z,0
2016-12-04T00:23:19.838Z,0
2016-12-04T00:24:30.993Z,0
2016-12-04T00:25:42.161Z,0
2016-12-04T00:26:53.334Z,0
2016-12-04T00:28:04.493Z,0
2016-12-04T00:29:15.668Z,0
2016-12-04T00:30:26.843Z,0
2016-12-04T00:31:38.010Z,0
2016-12-04T00:32:49.145Z,0
2016-12-04T00:34:00.309Z,0
2016-12-04T00:35:11.476Z,0
2016-12-04T00:36:22.646Z,0
2016-12-04T00:37:33.788Z,0
2016-12-04T00:38:44.967Z,0
2016-12-04T00:39:56.121Z,0
2016-12-04T00:41:07.300Z,0
2016-12-04T00:42:18.464Z,0
2016-12-04T00:43:29.609Z,0
2016-12-04T00:44:40.772Z,0
2016-12-04T00:45:51.958Z,0
2016-12-04T00:47:03.134Z,0
2016-12-04T00:48:14.287Z,0
2016-12-04T00:49:25.428Z,0
2016-12-04T00:50:36.580Z,0
2016-12-04T00:51:47.724Z,0
2016-12-04T00:52:58.889Z,0
2016-12-04T00:54:10.605Z,0
2016-12-04T00:55:21.753Z,0
2016-12-04T00:56:32.909Z,0
2016-12-04T00:57:44.081Z,0
2016-12-04T00:58:55.239Z,0
2016-12-04T01:00:06.939Z,0
2016-12-04T01:01:18.111Z,0
2016-12-04T01:02:29.262Z,0
2016-12-04T01:03:40.443Z,0
2016-12-04T01:04:51.617Z,0
2016-12-04T01:06:02.766Z,0
2016-12-04T01:07:13.975Z,0
2016-12-04T01:08:25.686Z,0
2016-12-04T01:09:36.870Z,0
2016-12-04T01:10:48.015Z,0
2016-12-04T01:11:59.181Z,0
2016-12-04T01:13:10.364Z,0
2016-12-04T01:14:21.529Z,0
2016-12-04T01:15:32.690Z,0
2016-12-04T01:16:43.853Z,0
2016-12-04T01:17:54.990Z,0
2016-12-04T01:19:06.135Z,0
2016-12-04T01:20:17.313Z,0
2016-12-04T01:21:28.488Z,0
2016-12-04T01:22:39.652Z,0
2016-12-04T01:23:50.831Z,0
2016-12-04T01:25:01.981Z,0
2016-12-04T01:26:13.152Z,0
2016-12-04T01:27:24.323Z,0
2016-12-04T01:28:35.474Z,0
2016-12-04T01:29:46.640Z,0
2016-12-04T01:30:57.919Z,0
2016-12-04T01:32:09.090Z,0
2016-12-04T01:33:20.799Z,0
2016-12-04T01:34:31.961Z,0
2016-12-04T01:35:43.123Z,0
2016-12-04T01:36:54.312Z,0
2016-12-04T01:38:05.471Z,0
2016-12-04T01:39:16.625Z,0
2016-12-04T01:40:27.793Z,0
2016-12-04T01:41:38.972Z,0
2016-12-04T01:42:50.116Z,0
2016-12-04T01:44:01.261Z,0
2016-12-04T01:45:12.999Z,0
2016-12-04T01:46:24.172Z,0
2016-12-04T01:47:35.313Z,0
2016-12-04T01:48:46.455Z,0
2016-12-04T01:49:57.618Z,0
2016-12-04T01:51:08.751Z,0
2016-12-04T01:52:19.900Z,0
2016-12-04T01:53:31.030Z,0
2016-12-04T01:54:42.224Z,0
2016-12-04T01:55:53.356Z,0
2016-12-04T01:57:04.528Z,0
2016-12-04T01:58:15.703Z,0
2016-12-04T01:59:26.844Z,0
2016-12-04T02:00:37.995Z,0
2016-12-04T02:01:49.156Z,0
2016-12-04T02:03:00.357Z,0
2016-12-04T02:04:11.521Z,0
2016-12-04T02:05:22.680Z,0
2016-12-04T02:06:33.818Z,0
2016-12-04T02:07:44.976Z,0
2016-12-04T02:08:56.139Z,0
2016-12-04T02:10:07.342Z,0
2016-12-04T02:11:18.511Z,0
2016-12-04T02:12:29.701Z,0
2016-12-04T02:13:40.845Z,0
2016-12-04T02:14:52.026Z,0
2016-12-04T02:16:03.156Z,0
2016-12-04T02:17:14.315Z,0
2016-12-04T02:18:25.492Z,0
2016-12-04T02:19:36.644Z,0
2016-12-04T02:20:47.803Z,0
2016-12-04T02:21:58.962Z,0
2016-12-04T02:23:10.151Z,0
2016-12-04T02:24:21.296Z,0
2016-12-04T02:25:32.452Z,0
2016-12-04T02:26:43.638Z,0
2016-12-04T02:27:54.812Z,0
2016-12-04T02:29:05.968Z,0
2016-12-04T02:30:17.121Z,0
2016-12-04T02:31:28.290Z,0
2016-12-04T02:32:39.425Z,0
2016-12-04T02:33:50.579Z,0
2016-12-04T02:35:01.733Z,0
2016-12-04T02:36:12.884Z,0
2016-12-04T02:37:24.031Z,0
2016-12-04T02:38:35.202Z,0
2016-12-04T02:39:46.349Z,0
2016-12-04T02:40:57.549Z,0
2016-12-04T02:42:08.716Z,0
2016-12-04T02:43:19.858Z,0
2016-12-04T02:44:31.009Z,0
2016-12-04T02:45:42.178Z,0
2016-12-04T02:46:53.344Z,0
2016-12-04T02:48:04.494Z,0
2016-12-04T02:49:15.681Z,0
2016-12-04T02:50:26.827Z,0
2016-12-04T02:51:38.016Z,0
2016-12-04T02:52:49.171Z,0
2016-12-04T02:54:00.321Z,0
2016-12-04T02:55:11.516Z,0
2016-12-04T02:56:22.678Z,0
2016-12-04T02:57:33.836Z,0
2016-12-04T02:58:45.021Z,0
2016-12-04T02:59:56.209Z,0
2016-12-04T03:01:07.366Z,0
2016-12-04T03:02:18.510Z,0
2016-12-04T03:03:29.666Z,0
2016-12-04T03:04:40.803Z,0
2016-12-04T03:05:51.958Z,0
2016-12-04T03:07:03.182Z,0
2016-12-04T03:08:14.382Z,0
2016-12-04T03:09:25.540Z,0
2016-12-04T03:10:36.715Z,0
2016-12-04T03:11:47.869Z,0
2016-12-04T03:12:59.040Z,0
2016-12-04T03:14:10.239Z,0
2016-12-04T03:15:21.424Z,0
2016-12-04T03:16:32.590Z,0
2016-12-04T03:17:43.807Z,0
2016-12-04T03:18:54.968Z,0
2016-12-04T03:20:06.133Z,0
2016-12-04T03:21:17.884Z,0
2016-12-04T03:22:29.102Z,0
2016-12-04T03:23:40.338Z,0
2016-12-04T03:24:51.506Z,0
2016-12-04T03:26:02.646Z,0
2016-12-04T03:27:13.858Z,0
2016-12-04T03:28:25.007Z,0
2016-12-04T03:29:36.137Z,0
2016-12-04T03:30:47.321Z,0
2016-12-04T03:31:58.460Z,0
2016-12-04T03:33:09.604Z,0
2016-12-04T03:34:20.769Z,0
2016-12-04T03:35:31.912Z,0
2016-12-04T03:36:43.066Z,0
2016-12-04T03:37:54.241Z,0
2016-12-04T03:39:05.389Z,0
2016-12-04T03:40:16.552Z,0
2016-12-04T03:41:27.695Z,0
2016-12-04T03:42:38.868Z,0
2016-12-04T03:43:50.035Z,0
2016-12-04T03:45:01.184Z,0
2016-12-04T03:46:12.356Z,0
2016-12-04T03:47:23.500Z,0
2016-12-04T03:48:34.658Z,0
2016-12-04T03:49:45.833Z,0
2016-12-04T03:50:56.976Z,0
2016-12-04T03:52:09.983Z,0
2016-12-04T03:53:21.398Z,0
2016-12-04T03:54:32.551Z,0
2016-12-04T03:55:43.729Z,0
2016-12-04T03:56:54.874Z,0
2016-12-04T03:58:06.027Z,0
2016-12-04T03:59:17.180Z,0
2016-12-04T04:00:28.341Z,0
2016-12-04T04:01:39.525Z,0
2016-12-04T04:02:50.689Z,0
2016-12-04T04:04:01.865Z,0
2016-12-04T04:05:13.044Z,0
2016-12-04T04:06:24.208Z,0
2016-12-04T04:07:35.355Z,0
2016-12-04T04:08:46.487Z,0
2016-12-04T04:09:57.650Z,0
2016-12-04T04:11:08.822Z,0
2016-12-04T04:12:20.002Z,0
2016-12-04T04:13:31.185Z,0
2016-12-04T04:14:42.351Z,0
2016-12-04T04:15:53.503Z,0
2016-12-04T04:17:04.655Z,0
2016-12-04T04:18:15.836Z,0
2016-12-04T04:19:26.985Z,0
2016-12-04T04:20:38.736Z,0
2016-12-04T04:21:49.906Z,0
2016-12-04T04:23:01.089Z,0
2016-12-04T04:24:12.275Z,0
2016-12-04T04:25:23.420Z,0
2016-12-04T04:26:34.585Z,0
2016-12-04T04:27:45.753Z,0
2016-12-04T04:28:56.893Z,0
2016-12-04T04:30:08.056Z,0
2016-12-04T04:31:21.892Z,0
2016-12-04T04:32:33.132Z,0
2016-12-04T04:33:44.274Z,0
2016-12-04T04:34:55.427Z,0
2016-12-04T04:36:06.593Z,0
2016-12-04T04:37:21.568Z,0
2016-12-04T04:38:33.286Z,0
2016-12-04T04:39:44.437Z,0
2016-12-04T04:40:55.589Z,0
2016-12-04T04:42:06.756Z,0
2016-12-04T04:43:17.912Z,0
2016-12-04T04:44:29.079Z,0
2016-12-04T04:45:40.257Z,0
2016-12-04T04:46:51.421Z,0
2016-12-04T04:48:02.588Z,0
2016-12-04T04:49:13.735Z,0
2016-12-04T04:50:26.147Z,0
2016-12-04T04:51:37.348Z,0
2016-12-04T04:52:48.492Z,0
2016-12-04T04:53:59.635Z,0
2016-12-04T04:55:10.796Z,0
2016-12-04T04:56:21.981Z,0
2016-12-04T04:57:33.169Z,0
2016-12-04T04:58:44.888Z,0
2016-12-04T04:59:56.043Z,0
2016-12-04T05:01:07.757Z,0
2016-12-04T05:02:18.925Z,0
2016-12-04T05:03:30.120Z,0
2016-12-04T05:04:41.281Z,0
2016-12-04T05:05:52.448Z,0
2016-12-04T05:07:03.621Z,0
2016-12-04T05:08:14.772Z,0
2016-12-04T05:09:25.925Z,0
2016-12-04T05:10:37.064Z,0
2016-12-04T05:11:48.233Z,0
2016-12-04T05:12:59.415Z,0
2016-12-04T05:14:10.563Z,0
2016-12-04T05:15:22.286Z,0
2016-12-04T05:16:33.483Z,0
2016-12-04T05:17:44.638Z,0
2016-12-04T05:18:55.795Z,0
2016-12-04T05:20:06.968Z,0
2016-12-04T05:21:18.111Z,0
2016-12-04T05:22:29.299Z,0
2016-12-04T05:23:40.453Z,0
2016-12-04T05:24:51.605Z,0
2016-12-04T05:26:02.764Z,0
2016-12-04T05:27:13.952Z,0
2016-12-04T05:28:25.106Z,0
2016-12-04T05:29:36.824Z,0
2016-12-04T05:30:47.972Z,0
2016-12-04T05:31:59.141Z,0
2016-12-04T05:33:10.328Z,0
2016-12-04T05:34:21.477Z,0
2016-12-04T05:35:32.624Z,0
2016-12-04T05:36:44.380Z,0
2016-12-04T05:37:55.549Z,0
2016-12-04T05:39:06.719Z,0
2016-12-04T05:40:17.878Z,0
2016-12-04T05:41:29.080Z,0
2016-12-04T05:42:40.234Z,0
2016-12-04T05:43:51.402Z,0
2016-12-04T05:45:02.556Z,0
2016-12-04T05:46:13.701Z,0
2016-12-04T05:47:24.845Z,0
2016-12-04T05:48:35.975Z,0
2016-12-04T05:49:47.125Z,0
2016-12-04T05:50:58.273Z,0
2016-12-04T05:52:09.421Z,0
2016-12-04T05:53:20.612Z,0
2016-12-04T05:54:31.773Z,0
2016-12-04T05:55:42.941Z,0
2016-12-04T05:56:54.119Z,0
2016-12-04T05:58:05.259Z,0
2016-12-04T05:59:16.395Z,0
2016-12-04T06:00:27.548Z,0
2016-12-04T06:01:38.690Z,0
2016-12-04T06:02:49.859Z,0
2016-12-04T06:04:01.062Z,0
2016-12-04T06:05:12.230Z,0
2016-12-04T06:06:23.401Z,0
2016-12-04T06:07:34.568Z,0
2016-12-04T06:08:45.705Z,0
2016-12-04T06:09:56.863Z,0
2016-12-04T06:11:08.001Z,0
2016-12-04T06:12:19.166Z,0
2016-12-04T06:13:30.331Z,0
2016-12-04T06:14:41.505Z,0
2016-12-04T06:15:52.660Z,0
2016-12-04T06:17:03.804Z,0
2016-12-04T06:18:14.970Z,0
2016-12-04T06:19:26.129Z,0
2016-12-04T06:20:37.308Z,0
2016-12-04T06:21:48.475Z,0
2016-12-04T06:22:59.625Z,0
2016-12-04T06:24:10.776Z,0
2016-12-04T06:25:21.934Z,0
2016-12-04T06:26:33.098Z,0
2016-12-04T06:27:44.275Z,0
2016-12-04T06:28:55.459Z,0
2016-12-04T06:30:06.624Z,0
2016-12-04T06:31:18.073Z,0
2016-12-04T06:32:29.242Z,0
2016-12-04T06:33:40.408Z,0
2016-12-04T06:34:51.764Z,0
2016-12-04T06:36:02.915Z,0
2016-12-04T06:37:14.059Z,0
2016-12-04T06:38:25.215Z,0
2016-12-04T06:39:36.378Z,0
2016-12-04T06:40:47.539Z,0
2016-12-04T06:41:59.259Z,0
2016-12-04T06:43:10.404Z,0
2016-12-04T06:44:21.640Z,0
2016-12-04T06:45:32.798Z,0
2016-12-04T06:46:43.961Z,0
2016-12-04T06:47:55.135Z,0
2016-12-04T06:49:06.306Z,0
2016-12-04T06:50:17.485Z,0
2016-12-04T06:51:29.224Z,0
2016-12-04T06:52:40.954Z,0
2016-12-04T06:53:52.114Z,0
2016-12-04T06:55:03.265Z,0
2016-12-04T06:56:14.407Z,0
2016-12-04T06:57:25.587Z,0
2016-12-04T06:58:36.729Z,0
2016-12-04T06:59:47.888Z,0
2016-12-04T07:00:59.032Z,0
2016-12-04T07:02:10.777Z,0
2016-12-04T07:03:21.952Z,0
2016-12-04T07:04:33.123Z,0
2016-12-04T07:05:44.287Z,0
2016-12-04T07:06:55.456Z,0
2016-12-04T07:08:06.615Z,0
2016-12-04T07:09:17.766Z,0
2016-12-04T07:10:28.945Z,0
2016-12-04T07:11:40.104Z,0
2016-12-04T07:12:51.248Z,0
2016-12-04T07:14:02.406Z,0
2016-12-04T07:15:13.590Z,0
2016-12-04T07:16:24.741Z,0
2016-12-04T07:17:35.909Z,0
2016-12-04T07:18:47.073Z,0
2016-12-04T07:19:58.239Z,0
2016-12-04T07:21:09.408Z,0
2016-12-04T07:22:20.539Z,0
2016-12-04T07:23:31.710Z,0
2016-12-04T07:24:42.889Z,0
2016-12-04T07:25:54.094Z,0
2016-12-04T07:27:05.230Z,0
2016-12-04T07:28:16.395Z,0
2016-12-04T07:29:27.561Z,0
2016-12-04T07:30:38.710Z,0
2016-12-04T07:31:49.866Z,0
2016-12-04T07:33:01.009Z,0
2016-12-04T07:34:12.175Z,0
2016-12-04T07:35:23.361Z,0
2016-12-04T07:36:34.532Z,0
2016-12-04T07:37:45.691Z,0
2016-12-04T07:38:56.852Z,0
2016-12-04T07:40:08.005Z,0
2016-12-04T07:41:19.171Z,0
2016-12-04T07:42:30.330Z,0
2016-12-04T07:43:41.475Z,0
2016-12-04T07:44:52.632Z,0
2016-12-04T07:46:03.801Z,0
2016-12-04T07:47:14.967Z,0
2016-12-04T07:48:26.099Z,0
2016-12-04T07:49:37.278Z,0
2016-12-04T07:50:48.440Z,4
2016-12-04T07:51:59.613Z,0
2016-12-04T07:53:10.772Z,4
2016-12-04T07:54:21.948Z,4
2016-12-04T07:55:33.086Z,8
2016-12-04T07:56:44.302Z,8
2016-12-04T07:57:55.470Z,20
2016-12-04T07:59:06.635Z,28
2016-12-04T08:00:17.798Z,40
2016-12-04T08:01:28.961Z,48
2016-12-04T08:02:40.112Z,56
2016-12-04T08:03:51.269Z,68
2016-12-04T08:05:02.425Z,56
2016-12-04T08:06:13.570Z,68
2016-12-04T08:07:24.755Z,76
2016-12-04T08:08:36.454Z,100
2016-12-04T08:09:47.617Z,128
2016-12-04T08:10:58.767Z,120
2016-12-04T08:12:09.923Z,208
2016-12-04T08:13:21.076Z,296
2016-12-04T08:14:32.209Z,348
2016-12-04T08:15:43.382Z,348
2016-12-04T08:16:54.515Z,384
2016-12-04T08:18:05.690Z,528
2016-12-04T08:19:16.886Z,688
2016-12-04T08:20:28.607Z,840
2016-12-04T08:21:39.793Z,964
2016-12-04T08:22:50.954Z,1120
2016-12-04T08:24:02.111Z,1272
2016-12-04T08:25:13.264Z,1396
2016-12-04T08:26:24.425Z,1628
2016-12-04T08:27:35.602Z,1840
2016-12-04T08:28:46.769Z,1728
2016-12-04T08:29:57.912Z,1740
2016-12-04T08:31:09.077Z,1992
2016-12-04T08:32:20.202Z,2188
2016-12-04T08:33:31.360Z,2212
2016-12-04T08:34:42.518Z,2252
2016-12-04T08:35:54.214Z,2568
2016-12-04T08:37:05.953Z,2828
2016-12-04T08:38:17.128Z,2960
2016-12-04T08:39:28.289Z,3244
2016-12-04T08:40:39.457Z,3504
2016-12-04T08:41:50.618Z,3652
2016-12-04T08:43:01.795Z,3996
2016-12-04T08:44:12.953Z,3996
2016-12-04T08:45:24.108Z,4384
2016-12-04T08:46:35.276Z,4620
2016-12-04T08:47:46.459Z,4812
2016-12-04T08:48:57.600Z,5164
2016-12-04T08:50:08.777Z,5828
2016-12-04T08:51:19.936Z,6016
2016-12-04T08:52:31.094Z,6560
2016-12-04T08:53:42.241Z,6648
2016-12-04T08:54:53.441Z,7140
2016-12-04T08:56:05.180Z,6788
2016-12-04T08:57:16.358Z,7584
2016-12-04T08:58:27.504Z,7920
2016-12-04T08:59:38.701Z,8116
2016-12-04T09:00:49.848Z,7708
2016-12-04T09:02:00.984Z,7700
2016-12-04T09:03:12.122Z,8192
2016-12-04T09:04:23.276Z,9384
2016-12-04T09:05:34.447Z,9916
2016-12-04T09:06:45.599Z,9196
2016-12-04T09:07:56.726Z,9112
2016-12-04T09:09:07.880Z,9520
2016-12-04T09:10:19.605Z,10324
2016-12-04T09:11:30.763Z,10172
2016-12-04T09:12:41.917Z,12496
2016-12-04T09:13:53.091Z,10556
2016-12-04T09:15:04.825Z,11932
2016-12-04T09:16:16.007Z,12396
2016-12-04T09:17:27.154Z,12304
2016-12-04T09:18:38.319Z,13020
2016-12-04T09:19:49.470Z,15908
2016-12-04T09:21:00.605Z,15568
2016-12-04T09:22:11.775Z,16188
2016-12-04T09:23:22.954Z,18944
2016-12-04T09:24:34.094Z,31072
2016-12-04T09:25:45.262Z,26560
2016-12-04T09:26:56.411Z,21952
2016-12-04T09:28:07.563Z,23072
2016-12-04T09:29:18.698Z,20928
2016-12-04T09:30:29.886Z,22912
2016-12-04T09:31:41.038Z,23584
2016-12-04T09:32:52.776Z,33440
2016-12-04T09:34:03.945Z,25632
2016-12-04T09:35:15.120Z,34912
2016-12-04T09:36:26.295Z,25184
2016-12-04T09:37:37.481Z,27168
2016-12-04T09:38:48.677Z,31104
2016-12-04T09:39:59.848Z,31968
2016-12-04T09:41:11.000Z,26720
2016-12-04T09:42:22.159Z,25216
2016-12-04T09:43:33.312Z,24512
2016-12-04T09:44:44.464Z,24160
2016-12-04T09:45:55.631Z,21984
2016-12-04T09:47:06.787Z,20480
2016-12-04T09:48:17.940Z,24224
2016-12-04T09:49:29.090Z,25152
2016-12-04T09:50:40.265Z,18080
2016-12-04T09:51:51.419Z,20288
2016-12-04T09:53:02.584Z,18976
2016-12-04T09:54:13.743Z,17204
2016-12-04T09:55:24.951Z,16096
2016-12-04T09:56:36.139Z,17172
2016-12-04T09:57:47.295Z,17984
2016-12-04T09:58:58.458Z,18016
2016-12-04T10:00:10.207Z,14752
2016-12-04T10:01:21.416Z,19296
2016-12-04T10:02:32.563Z,20704
2016-12-04T10:03:43.721Z,28192
2016-12-04T10:04:54.868Z,37088
2016-12-04T10:06:06.037Z,35584
2016-12-04T10:07:17.206Z,33984
2016-12-04T10:08:28.395Z,35808
2016-12-04T10:09:39.547Z,37920
2016-12-04T10:10:50.702Z,25440
2016-12-04T10:12:01.875Z,16992
2016-12-04T10:13:13.637Z,20672
2016-12-04T10:14:24.822Z,22656
2016-12-04T10:15:35.998Z,16860
2016-12-04T10:16:47.160Z,55648
2016-12-04T10:17:58.341Z,40320
2016-12-04T10:19:09.488Z,35968
2016-12-04T10:20:20.636Z,41792
2016-12-04T10:21:31.808Z,31456
2016-12-04T10:22:42.966Z,27168
2016-12-04T10:23:54.100Z,24576
2016-12-04T10:25:05.242Z,31840
2016-12-04T10:26:16.416Z,26208
2016-12-04T10:27:27.589Z,31744
2016-12-04T10:28:39.320Z,33728
2016-12-04T10:29:50.479Z,31104
2016-12-04T10:31:01.633Z,31936
2016-12-04T10:32:12.792Z,24800
2016-12-04T10:33:23.967Z,66048
2016-12-04T10:34:35.118Z,34784
2016-12-04T10:35:46.282Z,28768
2016-12-04T10:36:57.456Z,33568
2016-12-04T10:38:09.153Z,26592
2016-12-04T10:39:20.317Z,43040
2016-12-04T10:40:31.520Z,93504
2016-12-04T10:41:42.719Z,32288
2016-12-04T10:42:54.465Z,72064
2016-12-04T10:44:05.619Z,32800
2016-12-04T10:45:16.808Z,31584
2016-12-04T10:46:27.957Z,47392
2016-12-04T10:47:39.168Z,28704
2016-12-04T10:48:50.915Z,49984
2016-12-04T10:50:02.112Z,60672
2016-12-04T10:51:13.961Z,55648
2016-12-04T10:52:25.145Z,54112
2016-12-04T10:53:36.295Z,55904
2016-12-04T10:54:47.435Z,50848
2016-12-04T10:55:58.636Z,62016
2016-12-04T10:57:09.817Z,28736
2016-12-04T10:58:21.006Z,62944
2016-12-04T10:59:32.189Z,64992
2016-12-04T11:00:43.901Z,75712
2016-12-04T11:01:55.653Z,77088
2016-12-04T11:03:06.814Z,28128
2016-12-04T11:04:17.981Z,81568
2016-12-04T11:05:29.148Z,71072
2016-12-04T11:06:40.325Z,69120
2016-12-04T11:07:51.475Z,68960
2016-12-04T11:09:02.648Z,82400
2016-12-04T11:10:13.824Z,91616
2016-12-04T11:11:24.976Z,79264
2016-12-04T11:12:36.154Z,74464
2016-12-04T11:13:47.328Z,72000
2016-12-04T11:14:58.500Z,60096
2016-12-04T11:16:09.681Z,54400
2016-12-04T11:17:20.829Z,57920
2016-12-04T11:18:32.005Z,64256
2016-12-04T11:19:43.173Z,67008
2016-12-04T11:20:54.331Z,80192
2016-12-04T11:22:05.495Z,58304
2016-12-04T11:23:16.655Z,75840
2016-12-04T11:24:27.827Z,32928
2016-12-04T11:25:39.054Z,34464
2016-12-04T11:26:50.779Z,100032
2016-12-04T11:28:01.954Z,93216
2016-12-04T11:29:13.085Z,104512
2016-12-04T11:30:24.261Z,34016
2016-12-04T11:31:35.414Z,124544
2016-12-04T11:32:46.578Z,41632
2016-12-04T11:33:57.756Z,34432
2016-12-04T11:35:08.920Z,26368
2016-12-04T11:36:20.070Z,124800
2016-12-04T11:37:31.212Z,121088
2016-12-04T11:38:42.386Z,46912
2016-12-04T11:39:53.568Z,116992
2016-12-04T11:41:04.734Z,123968
2016-12-04T11:42:15.902Z,34720
2016-12-04T11:43:27.080Z,129696
2016-12-04T11:44:38.241Z,44064
2016-12-04T11:45:49.412Z,38336
2016-12-04T11:47:00.589Z,30944
2016-12-04T11:48:11.788Z,35296
2016-12-04T11:49:22.954Z,28832
2016-12-04T11:50:34.140Z,43328
2016-12-04T11:51:45.872Z,120768
2016-12-04T11:52:57.050Z,72832
2016-12-04T11:54:08.222Z,44832
2016-12-04T11:55:19.368Z,30176
2016-12-04T11:56:30.572Z,38752
2016-12-04T11:57:41.764Z,31744
2016-12-04T11:58:52.935Z,117344
2016-12-04T12:00:04.101Z,34656
2016-12-04T12:01:15.858Z,46784
2016-12-04T12:02:27.021Z,34016
2016-12-04T12:03:38.217Z,129792
2016-12-04T12:04:49.399Z,61728
2016-12-04T12:06:01.125Z,31840
2016-12-04T12:07:12.299Z,53056
2016-12-04T12:08:23.472Z,37184
2016-12-04T12:09:34.656Z,133376
2016-12-04T12:10:45.839Z,63616
2016-12-04T12:11:56.973Z,138656
2016-12-04T12:13:08.136Z,127872
2016-12-04T12:14:19.354Z,43648
2016-12-04T12:15:30.517Z,28320
2016-12-04T12:16:41.678Z,23520
2016-12-04T12:17:52.847Z,47264
2016-12-04T12:19:04.020Z,133536
2016-12-04T12:20:15.212Z,121664
2016-12-04T12:21:26.351Z,118944
2016-12-04T12:22:37.521Z,114592
2016-12-04T12:23:49.239Z,124192
2016-12-04T12:25:00.414Z,124736
2016-12-04T12:26:11.588Z,120800
2016-12-04T12:27:22.790Z,119072
2016-12-04T12:28:33.961Z,119552
2016-12-04T12:29:45.135Z,33728
2016-12-04T12:30:56.322Z,102048
2016-12-04T12:32:07.507Z,133216
2016-12-04T12:33:18.678Z,129600
2016-12-04T12:34:30.405Z,129216
2016-12-04T12:35:41.616Z,127904
2016-12-04T12:36:52.793Z,130368
2016-12-04T12:38:03.961Z,136192
2016-12-04T12:39:15.175Z,131520
2016-12-04T12:40:26.367Z,102816
2016-12-04T12:41:37.511Z,120960
2016-12-04T12:42:48.694Z,81568
2016-12-04T12:43:59.851Z,98688
2016-12-04T12:45:11.058Z,128992
2016-12-04T12:46:22.212Z,132736
2016-12-04T12:47:33.382Z,142432
2016-12-04T12:48:44.528Z,147776
2016-12-04T12:49:55.701Z,153216
2016-12-04T12:51:07.436Z,149568
2016-12-04T12:52:18.609Z,51008
2016-12-04T12:53:29.766Z,69952
2016-12-04T12:54:40.956Z,56416
2016-12-04T12:55:52.101Z,22080
2016-12-04T12:57:03.309Z,26240
2016-12-04T12:58:14.476Z,30176
2016-12-04T12:59:25.638Z,141664
2016-12-04T13:00:36.778Z,133760
2016-12-04T13:01:47.975Z,127584
2016-12-04T13:02:59.160Z,129536
2016-12-04T13:04:10.336Z,139680
2016-12-04T13:05:21.545Z,31168
2016-12-04T13:06:32.701Z,61888
2016-12-04T13:07:43.871Z,141344
2016-12-04T13:08:55.022Z,138240
2016-12-04T13:10:06.163Z,142144
2016-12-04T13:11:17.299Z,133856
2016-12-04T13:12:28.448Z,142816
2016-12-04T13:13:39.607Z,158720
2016-12-04T13:14:50.796Z,42144
2016-12-04T13:16:01.956Z,40384
2016-12-04T13:17:13.156Z,35232
2016-12-04T13:18:24.336Z,158528
2016-12-04T13:19:35.525Z,141216
2016-12-04T13:20:46.714Z,39488
2016-12-04T13:21:57.869Z,142272
2016-12-04T13:23:09.020Z,58784
2016-12-04T13:24:20.189Z,136864
2016-12-04T13:25:31.359Z,54752
2016-12-04T13:26:42.521Z,46880
2016-12-04T13:27:53.667Z,132448
2016-12-04T13:29:04.819Z,162496
2016-12-04T13:30:15.978Z,42368
2016-12-04T13:31:27.266Z,32896
2016-12-04T13:32:38.463Z,148096
2016-12-04T13:33:49.654Z,145408
2016-12-04T13:35:00.831Z,157312
2016-12-04T13:36:11.997Z,152352
2016-12-04T13:37:23.173Z,146976
2016-12-04T13:38:34.353Z,150720
2016-12-04T13:39:45.548Z,40192
2016-12-04T13:40:56.716Z,144832
2016-12-04T13:42:07.885Z,129216
2016-12-04T13:43:19.595Z,150624
2016-12-04T13:44:30.751Z,147584
2016-12-04T13:45:41.921Z,153600
2016-12-04T13:46:53.109Z,148096
2016-12-04T13:48:04.289Z,142336
2016-12-04T13:49:15.453Z,141792
2016-12-04T13:50:26.595Z,146208
2016-12-04T13:51:37.950Z,149472
2016-12-04T13:52:49.108Z,137376
2016-12-04T13:54:00.313Z,152480
2016-12-04T13:55:11.485Z,150624
2016-12-04T13:56:22.643Z,152480
2016-12-04T13:57:33.849Z,153280
2016-12-04T13:58:45.016Z,150208
2016-12-04T13:59:56.193Z,152640
2016-12-04T14:01:07.349Z,22944
2016-12-04T14:02:18.521Z,30688
2016-12-04T14:03:29.695Z,151296
2016-12-04T14:04:40.886Z,35040
2016-12-04T14:05:52.046Z,100320
2016-12-04T14:07:03.243Z,137824
2016-12-04T14:08:14.417Z,140736
2016-12-04T14:09:25.596Z,136224
2016-12-04T14:10:36.758Z,93728
2016-12-04T14:11:47.923Z,156512
2016-12-04T14:12:59.105Z,35456
2016-12-04T14:14:10.284Z,30496
2016-12-04T14:15:21.470Z,149216
2016-12-04T14:16:32.625Z,29024
2016-12-04T14:17:43.767Z,38976
2016-12-04T14:18:54.913Z,168640
2016-12-04T14:20:06.075Z,32896
2016-12-04T14:21:17.260Z,47840
2016-12-04T14:22:28.436Z,29056
2016-12-04T14:23:39.606Z,30368
2016-12-04T14:24:50.758Z,34144
2016-12-04T14:26:01.911Z,48960
2016-12-04T14:27:13.098Z,55904
2016-12-04T14:28:24.275Z,86112
2016-12-04T14:29:35.430Z,172864
2016-12-04T14:30:46.585Z,162528
2016-12-04T14:31:57.763Z,161216
2016-12-04T14:33:08.915Z,156160
2016-12-04T14:34:20.089Z,152000
2016-12-04T14:35:31.246Z,42112
2016-12-04T14:36:42.424Z,144864
2016-12-04T14:37:53.621Z,167936
2016-12-04T14:39:04.757Z,37920
2016-12-04T14:40:15.935Z,118432
2016-12-04T14:41:27.125Z,31712
2016-12-04T14:42:38.277Z,119520
2016-12-04T14:43:49.437Z,154464
2016-12-04T14:45:00.618Z,140896
2016-12-04T14:46:11.848Z,133216
2016-12-04T14:47:23.026Z,144288
2016-12-04T14:48:34.181Z,161536
2016-12-04T14:49:45.349Z,151072
2016-12-04T14:50:56.529Z,166816
2016-12-04T14:52:07.685Z,40128
2016-12-04T14:53:18.843Z,99712
2016-12-04T14:54:30.051Z,33632
2016-12-04T14:55:41.235Z,29600
2016-12-04T14:56:52.419Z,29376
2016-12-04T14:58:03.588Z,30688
2016-12-04T14:59:14.758Z,36960
2016-12-04T15:00:25.958Z,153280
2016-12-04T15:01:37.147Z,149888
2016-12-04T15:02:48.331Z,115136
2016-12-04T15:03:59.509Z,150080
2016-12-04T15:05:10.710Z,152192
2016-12-04T15:06:21.870Z,157472
2016-12-04T15:07:33.042Z,36480
2016-12-04T15:08:44.213Z,151424
2016-12-04T15:09:55.402Z,148704
2016-12-04T15:11:06.564Z,148768
2016-12-04T15:12:17.706Z,62944
2016-12-04T15:13:28.915Z,31200
2016-12-04T15:14:40.093Z,49216
2016-12-04T15:15:51.279Z,52576
2016-12-04T15:17:02.476Z,149120
2016-12-04T15:18:13.646Z,151584
2016-12-04T15:19:24.811Z,150176
2016-12-04T15:20:36.273Z,30784
2016-12-04T15:21:47.598Z,151520
2016-12-04T15:22:58.782Z,78720
2016-12-04T15:24:09.953Z,43584
2016-12-04T15:25:21.150Z,116928
2016-12-04T15:26:32.319Z,148768
2016-12-04T15:27:43.494Z,146240
2016-12-04T15:28:54.717Z,141856
2016-12-04T15:30:05.877Z,141056
2016-12-04T15:31:17.073Z,139872
2016-12-04T15:32:28.250Z,141472
2016-12-04T15:33:39.425Z,142208
2016-12-04T15:34:50.621Z,137536
2016-12-04T15:36:01.820Z,137344
2016-12-04T15:37:13.011Z,134976
2016-12-04T15:38:24.236Z,132960
2016-12-04T15:39:35.401Z,89984
2016-12-04T15:40:46.612Z,143360
2016-12-04T15:41:57.807Z,142400
2016-12-04T15:43:08.975Z,141472
2016-12-04T15:44:20.163Z,139680
2016-12-04T15:45:31.363Z,140288
2016-12-04T15:46:42.538Z,138912
2016-12-04T15:47:53.712Z,141440
2016-12-04T15:49:04.888Z,142336
2016-12-04T15:50:16.055Z,58016
2016-12-04T15:51:27.249Z,40896
2016-12-04T15:52:38.463Z,144992
2016-12-04T15:53:49.664Z,141600
2016-12-04T15:55:00.850Z,142336
2016-12-04T15:56:12.584Z,145280
2016-12-04T15:57:23.779Z,105408
2016-12-04T15:58:34.935Z,139104
2016-12-04T15:59:46.148Z,137824
2016-12-04T16:00:57.326Z,134912
2016-12-04T16:02:08.533Z,135456
2016-12-04T16:03:19.710Z,47264
2016-12-04T16:04:30.873Z,110144
2016-12-04T16:05:42.075Z,144128
2016-12-04T16:06:53.284Z,45664
2016-12-04T16:08:04.474Z,134688
2016-12-04T16:09:15.680Z,128544
2016-12-04T16:10:26.851Z,127104
2016-12-04T16:11:38.021Z,130016
2016-12-04T16:12:49.203Z,129024
2016-12-04T16:14:00.371Z,128544
2016-12-04T16:15:11.538Z,139872
2016-12-04T16:16:22.688Z,134208